sensor_id;sensor_type;location;lat;lon;timestamp;temperature;humidity
76239;SHT30;65043;48.392;-4.472;2023-05-28T00:00:05;17.71;60.41
76239;SHT30;65043;48.392;-4.472;2023-05-28T00:02:32;17.69;60.42
76239;SHT30;65043;48.392;-4.472;2023-05-28T00:04:58;17.67;60.63
76239;SHT30;65043;48.392;-4.472;2023-05-28T00:07:24;17.67;60.60
76239;SHT30;65043;48.392;-4.472;2023-05-28T00:09:50;17.66;60.73
76239;SHT30;65043;48.392;-4.472;2023-05-28T00:12:16;17.65;60.80
76239;SHT30;65043;48.392;-4.472;2023-05-28T00:14:42;17.66;60.93
76239;SHT30;65043;48.392;-4.472;2023-05-28T00:17:07;17.65;61.05
76239;SHT30;65043;48.392;-4.472;2023-05-28T00:19:34;17.59;61.16
76239;SHT30;65043;48.392;-4.472;2023-05-28T00:21:59;17.56;61.28
76239;SHT30;65043;48.392;-4.472;2023-05-28T00:24:25;17.51;61.39
76239;SHT30;65043;48.392;-4.472;2023-05-28T00:26:51;17.49;61.47
76239;SHT30;65043;48.392;-4.472;2023-05-28T00:29:16;17.51;61.53
76239;SHT30;65043;48.392;-4.472;2023-05-28T00:31:42;17.49;61.70
76239;SHT30;65043;48.392;-4.472;2023-05-28T00:34:07;17.49;61.81
76239;SHT30;65043;48.392;-4.472;2023-05-28T00:36:33;17.45;61.86
76239;SHT30;65043;48.392;-4.472;2023-05-28T00:38:58;17.45;62.00
76239;SHT30;65043;48.392;-4.472;2023-05-28T00:41:30;17.45;62.02
76239;SHT30;65043;48.392;-4.472;2023-05-28T00:43:56;17.42;62.06
76239;SHT30;65043;48.392;-4.472;2023-05-28T00:46:23;17.40;62.25
76239;SHT30;65043;48.392;-4.472;2023-05-28T00:48:49;17.43;62.08
76239;SHT30;65043;48.392;-4.472;2023-05-28T00:51:15;17.38;62.13
76239;SHT30;65043;48.392;-4.472;2023-05-28T00:53:41;17.40;62.08
76239;SHT30;65043;48.392;-4.472;2023-05-28T00:56:09;17.38;61.95
76239;SHT30;65043;48.392;-4.472;2023-05-28T00:58:37;17.39;61.99
76239;SHT30;65043;48.392;-4.472;2023-05-28T01:01:06;17.38;61.87
76239;SHT30;65043;48.392;-4.472;2023-05-28T01:03:31;17.40;61.80
76239;SHT30;65043;48.392;-4.472;2023-05-28T01:05:57;17.40;61.88
76239;SHT30;65043;48.392;-4.472;2023-05-28T01:08:26;17.33;62.36
76239;SHT30;65043;48.392;-4.472;2023-05-28T01:10:52;17.33;62.50
76239;SHT30;65043;48.392;-4.472;2023-05-28T01:13:17;17.33;62.77
76239;SHT30;65043;48.392;-4.472;2023-05-28T01:15:43;17.28;62.88
76239;SHT30;65043;48.392;-4.472;2023-05-28T01:18:08;17.29;62.87
76239;SHT30;65043;48.392;-4.472;2023-05-28T01:20:34;17.29;62.67
76239;SHT30;65043;48.392;-4.472;2023-05-28T01:23:06;17.29;62.87
76239;SHT30;65043;48.392;-4.472;2023-05-28T01:25:35;17.28;62.70
76239;SHT30;65043;48.392;-4.472;2023-05-28T01:28:13;17.26;62.82
76239;SHT30;65043;48.392;-4.472;2023-05-28T01:30:39;17.25;62.84
76239;SHT30;65043;48.392;-4.472;2023-05-28T01:33:06;17.26;62.79
76239;SHT30;65043;48.392;-4.472;2023-05-28T01:35:31;17.26;62.85
76239;SHT30;65043;48.392;-4.472;2023-05-28T01:37:59;17.23;63.05
76239;SHT30;65043;48.392;-4.472;2023-05-28T01:40:26;17.20;63.12
76239;SHT30;65043;48.392;-4.472;2023-05-28T01:42:52;17.19;63.25
76239;SHT30;65043;48.392;-4.472;2023-05-28T01:45:21;17.18;63.29
76239;SHT30;65043;48.392;-4.472;2023-05-28T01:47:47;17.19;63.16
76239;SHT30;65043;48.392;-4.472;2023-05-28T01:50:14;17.19;63.17
76239;SHT30;65043;48.392;-4.472;2023-05-28T01:52:40;17.16;63.48
76239;SHT30;65043;48.392;-4.472;2023-05-28T01:55:05;17.14;63.48
76239;SHT30;65043;48.392;-4.472;2023-05-28T01:57:34;17.16;63.63
76239;SHT30;65043;48.392;-4.472;2023-05-28T01:59:59;17.14;63.59
76239;SHT30;65043;48.392;-4.472;2023-05-28T02:02:24;17.12;63.82
76239;SHT30;65043;48.392;-4.472;2023-05-28T02:04:52;17.11;63.79
76239;SHT30;65043;48.392;-4.472;2023-05-28T02:07:18;17.11;63.50
76239;SHT30;65043;48.392;-4.472;2023-05-28T02:09:43;17.08;63.92
76239;SHT30;65043;48.392;-4.472;2023-05-28T02:12:10;17.08;64.09
76239;SHT30;65043;48.392;-4.472;2023-05-28T02:14:36;17.07;64.23
76239;SHT30;65043;48.392;-4.472;2023-05-28T02:17:01;17.08;64.19
76239;SHT30;65043;48.392;-4.472;2023-05-28T02:19:27;17.04;64.23
76239;SHT30;65043;48.392;-4.472;2023-05-28T02:21:52;17.05;64.34
76239;SHT30;65043;48.392;-4.472;2023-05-28T02:24:18;17.02;64.19
76239;SHT30;65043;48.392;-4.472;2023-05-28T02:26:44;17.01;64.43
76239;SHT30;65043;48.392;-4.472;2023-05-28T02:29:10;16.98;64.52
76239;SHT30;65043;48.392;-4.472;2023-05-28T02:31:35;17.01;64.52
76239;SHT30;65043;48.392;-4.472;2023-05-28T02:34:00;16.98;64.70
76239;SHT30;65043;48.392;-4.472;2023-05-28T02:36:26;16.94;64.83
76239;SHT30;65043;48.392;-4.472;2023-05-28T02:38:51;16.95;64.90
76239;SHT30;65043;48.392;-4.472;2023-05-28T02:41:16;16.94;65.01
76239;SHT30;65043;48.392;-4.472;2023-05-28T02:43:42;16.91;65.06
76239;SHT30;65043;48.392;-4.472;2023-05-28T02:46:08;16.91;65.42
76239;SHT30;65043;48.392;-4.472;2023-05-28T02:48:34;16.87;65.37
76239;SHT30;65043;48.392;-4.472;2023-05-28T02:50:59;16.87;65.43
76239;SHT30;65043;48.392;-4.472;2023-05-28T02:53:29;16.87;65.59
76239;SHT30;65043;48.392;-4.472;2023-05-28T02:55:54;16.84;65.32
76239;SHT30;65043;48.392;-4.472;2023-05-28T02:58:20;16.89;65.18
76239;SHT30;65043;48.392;-4.472;2023-05-28T03:00:45;16.82;65.52
76239;SHT30;65043;48.392;-4.472;2023-05-28T03:03:11;16.87;65.64
76239;SHT30;65043;48.392;-4.472;2023-05-28T03:05:36;16.84;65.74
76239;SHT30;65043;48.392;-4.472;2023-05-28T03:08:02;16.84;65.67
76239;SHT30;65043;48.392;-4.472;2023-05-28T03:10:28;16.81;65.67
76239;SHT30;65043;48.392;-4.472;2023-05-28T03:12:53;16.79;65.89
76239;SHT30;65043;48.392;-4.472;2023-05-28T03:15:18;16.79;65.80
76239;SHT30;65043;48.392;-4.472;2023-05-28T03:17:44;16.82;65.94
76239;SHT30;65043;48.392;-4.472;2023-05-28T03:20:10;16.78;66.04
76239;SHT30;65043;48.392;-4.472;2023-05-28T03:22:37;16.81;65.77
76239;SHT30;65043;48.392;-4.472;2023-05-28T03:25:03;16.82;65.93
76239;SHT30;65043;48.392;-4.472;2023-05-28T03:27:28;16.79;66.03
76239;SHT30;65043;48.392;-4.472;2023-05-28T03:29:54;16.81;65.88
76239;SHT30;65043;48.392;-4.472;2023-05-28T03:32:20;16.78;66.03
76239;SHT30;65043;48.392;-4.472;2023-05-28T03:34:45;16.77;66.00
76239;SHT30;65043;48.392;-4.472;2023-05-28T03:37:11;16.75;65.91
76239;SHT30;65043;48.392;-4.472;2023-05-28T03:39:37;16.77;65.93
76239;SHT30;65043;48.392;-4.472;2023-05-28T03:42:02;16.77;65.96
76239;SHT30;65043;48.392;-4.472;2023-05-28T03:44:28;16.77;65.80
76239;SHT30;65043;48.392;-4.472;2023-05-28T03:46:53;16.77;65.97
76239;SHT30;65043;48.392;-4.472;2023-05-28T03:49:18;16.75;65.84
76239;SHT30;65043;48.392;-4.472;2023-05-28T03:51:44;16.77;65.77
76239;SHT30;65043;48.392;-4.472;2023-05-28T03:54:09;16.75;65.84
76239;SHT30;65043;48.392;-4.472;2023-05-28T03:56:35;16.74;65.71
76239;SHT30;65043;48.392;-4.472;2023-05-28T03:59:01;16.74;65.69
76239;SHT30;65043;48.392;-4.472;2023-05-28T04:01:26;16.72;65.68
76239;SHT30;65043;48.392;-4.472;2023-05-28T04:03:53;16.72;65.72
76239;SHT30;65043;48.392;-4.472;2023-05-28T04:06:19;16.70;65.72
76239;SHT30;65043;48.392;-4.472;2023-05-28T04:08:44;16.70;65.74
76239;SHT30;65043;48.392;-4.472;2023-05-28T04:11:09;16.67;65.79
76239;SHT30;65043;48.392;-4.472;2023-05-28T04:13:35;16.68;65.75
76239;SHT30;65043;48.392;-4.472;2023-05-28T04:16:00;16.64;65.74
76239;SHT30;65043;48.392;-4.472;2023-05-28T04:18:26;16.64;65.70
76239;SHT30;65043;48.392;-4.472;2023-05-28T04:20:52;16.63;65.78
76239;SHT30;65043;48.392;-4.472;2023-05-28T04:23:17;16.61;65.85
76239;SHT30;65043;48.392;-4.472;2023-05-28T04:25:43;16.61;65.73
76239;SHT30;65043;48.392;-4.472;2023-05-28T04:28:08;16.60;65.82
76239;SHT30;65043;48.392;-4.472;2023-05-28T04:30:34;16.57;65.98
76239;SHT30;65043;48.392;-4.472;2023-05-28T04:32:59;16.57;66.04
76239;SHT30;65043;48.392;-4.472;2023-05-28T04:35:25;16.57;66.02
76239;SHT30;65043;48.392;-4.472;2023-05-28T04:37:51;16.56;66.09
76239;SHT30;65043;48.392;-4.472;2023-05-28T04:40:17;16.56;66.10
76239;SHT30;65043;48.392;-4.472;2023-05-28T04:42:42;16.54;66.22
76239;SHT30;65043;48.392;-4.472;2023-05-28T04:45:09;16.54;66.24
76239;SHT30;65043;48.392;-4.472;2023-05-28T04:47:35;16.53;66.24
76239;SHT30;65043;48.392;-4.472;2023-05-28T04:50:03;16.51;66.28
76239;SHT30;65043;48.392;-4.472;2023-05-28T04:52:33;16.51;66.34
76239;SHT30;65043;48.392;-4.472;2023-05-28T04:55:01;16.50;66.41
76239;SHT30;65043;48.392;-4.472;2023-05-28T04:57:29;16.51;66.41
76239;SHT30;65043;48.392;-4.472;2023-05-28T04:59:54;16.53;66.55
76239;SHT30;65043;48.392;-4.472;2023-05-28T05:02:20;16.51;66.41
76239;SHT30;65043;48.392;-4.472;2023-05-28T05:04:45;16.48;66.49
76239;SHT30;65043;48.392;-4.472;2023-05-28T05:07:14;16.48;66.49
76239;SHT30;65043;48.392;-4.472;2023-05-28T05:09:40;16.47;66.69
76239;SHT30;65043;48.392;-4.472;2023-05-28T05:12:06;16.46;66.69
76239;SHT30;65043;48.392;-4.472;2023-05-28T05:14:33;16.50;66.68
76239;SHT30;65043;48.392;-4.472;2023-05-28T05:16:58;16.51;66.69
76239;SHT30;65043;48.392;-4.472;2023-05-28T05:19:23;16.48;66.83
76239;SHT30;65043;48.392;-4.472;2023-05-28T05:21:50;16.44;66.90
76239;SHT30;65043;48.392;-4.472;2023-05-28T05:24:16;16.47;66.99
76239;SHT30;65043;48.392;-4.472;2023-05-28T05:26:41;16.46;66.96
76239;SHT30;65043;48.392;-4.472;2023-05-28T05:29:07;16.46;66.88
76239;SHT30;65043;48.392;-4.472;2023-05-28T05:31:32;16.46;66.88
76239;SHT30;65043;48.392;-4.472;2023-05-28T05:33:58;16.47;66.91
76239;SHT30;65043;48.392;-4.472;2023-05-28T05:36:23;16.47;66.91
76239;SHT30;65043;48.392;-4.472;2023-05-28T05:38:49;16.47;66.85
76239;SHT30;65043;48.392;-4.472;2023-05-28T05:41:14;16.50;66.98
76239;SHT30;65043;48.392;-4.472;2023-05-28T05:43:40;16.53;66.90
76239;SHT30;65043;48.392;-4.472;2023-05-28T05:46:05;16.53;66.59
76239;SHT30;65043;48.392;-4.472;2023-05-28T05:48:30;16.54;66.71
76239;SHT30;65043;48.392;-4.472;2023-05-28T05:50:56;16.54;66.74
76239;SHT30;65043;48.392;-4.472;2023-05-28T05:53:23;16.57;66.60
76239;SHT30;65043;48.392;-4.472;2023-05-28T05:55:49;16.57;66.56
76239;SHT30;65043;48.392;-4.472;2023-05-28T05:58:15;16.60;66.47
76239;SHT30;65043;48.392;-4.472;2023-05-28T06:00:40;16.63;66.51
76239;SHT30;65043;48.392;-4.472;2023-05-28T06:03:06;16.61;66.56
76239;SHT30;65043;48.392;-4.472;2023-05-28T06:05:33;16.64;66.56
76239;SHT30;65043;48.392;-4.472;2023-05-28T06:07:58;16.67;66.44
76239;SHT30;65043;48.392;-4.472;2023-05-28T06:10:24;16.64;66.51
76239;SHT30;65043;48.392;-4.472;2023-05-28T06:12:49;16.67;66.35
76239;SHT30;65043;48.392;-4.472;2023-05-28T06:15:15;16.67;66.27
76239;SHT30;65043;48.392;-4.472;2023-05-28T06:17:40;16.70;66.31
76239;SHT30;65043;48.392;-4.472;2023-05-28T06:20:07;16.72;66.24
76239;SHT30;65043;48.392;-4.472;2023-05-28T06:22:33;16.74;66.08
76239;SHT30;65043;48.392;-4.472;2023-05-28T06:24:58;16.77;66.06
76239;SHT30;65043;48.392;-4.472;2023-05-28T06:27:26;16.75;66.02
76239;SHT30;65043;48.392;-4.472;2023-05-28T06:29:51;16.79;66.07
76239;SHT30;65043;48.392;-4.472;2023-05-28T06:32:17;16.82;65.95
76239;SHT30;65043;48.392;-4.472;2023-05-28T06:34:42;16.84;66.01
76239;SHT30;65043;48.392;-4.472;2023-05-28T06:37:08;16.85;65.69
76239;SHT30;65043;48.392;-4.472;2023-05-28T06:39:34;16.88;65.55
76239;SHT30;65043;48.392;-4.472;2023-05-28T06:41:59;16.85;65.43
76239;SHT30;65043;48.392;-4.472;2023-05-28T06:44:24;16.89;65.48
76239;SHT30;65043;48.392;-4.472;2023-05-28T06:46:50;16.94;65.42
76239;SHT30;65043;48.392;-4.472;2023-05-28T06:49:15;16.95;65.43
76239;SHT30;65043;48.392;-4.472;2023-05-28T06:51:41;16.94;65.33
76239;SHT30;65043;48.392;-4.472;2023-05-28T06:54:06;16.95;65.34
76239;SHT30;65043;48.392;-4.472;2023-05-28T06:56:32;17.01;65.38
76239;SHT30;65043;48.392;-4.472;2023-05-28T06:58:57;17.05;65.31
76239;SHT30;65043;48.392;-4.472;2023-05-28T07:01:23;17.08;65.21
76239;SHT30;65043;48.392;-4.472;2023-05-28T07:03:48;17.09;65.03
76239;SHT30;65043;48.392;-4.472;2023-05-28T07:06:15;17.09;65.04
76239;SHT30;65043;48.392;-4.472;2023-05-28T07:08:40;17.11;64.92
76239;SHT30;65043;48.392;-4.472;2023-05-28T07:11:12;17.12;64.63
76239;SHT30;65043;48.392;-4.472;2023-05-28T07:13:38;17.15;64.77
76239;SHT30;65043;48.392;-4.472;2023-05-28T07:16:05;17.16;64.77
76239;SHT30;65043;48.392;-4.472;2023-05-28T07:18:31;17.18;64.73
76239;SHT30;65043;48.392;-4.472;2023-05-28T07:20:57;17.22;64.53
76239;SHT30;65043;48.392;-4.472;2023-05-28T07:23:22;17.28;64.44
76239;SHT30;65043;48.392;-4.472;2023-05-28T07:25:47;17.29;64.35
76239;SHT30;65043;48.392;-4.472;2023-05-28T07:28:13;17.33;64.24
76239;SHT30;65043;48.392;-4.472;2023-05-28T07:30:40;17.33;64.09
76239;SHT30;65043;48.392;-4.472;2023-05-28T07:33:05;17.36;64.11
76239;SHT30;65043;48.392;-4.472;2023-05-28T07:35:31;17.40;64.12
76239;SHT30;65043;48.392;-4.472;2023-05-28T07:37:56;17.45;64.02
76239;SHT30;65043;48.392;-4.472;2023-05-28T07:40:22;17.49;63.97
76239;SHT30;65043;48.392;-4.472;2023-05-28T07:42:47;17.56;63.76
76239;SHT30;65043;48.392;-4.472;2023-05-28T07:45:12;17.56;63.61
76239;SHT30;65043;48.392;-4.472;2023-05-28T07:47:38;17.65;63.36
76239;SHT30;65043;48.392;-4.472;2023-05-28T07:50:03;17.69;63.14
76239;SHT30;65043;48.392;-4.472;2023-05-28T07:52:29;17.73;62.61
76239;SHT30;65043;48.392;-4.472;2023-05-28T07:54:57;17.77;62.52
76239;SHT30;65043;48.392;-4.472;2023-05-28T07:57:24;17.80;62.24
76239;SHT30;65043;48.392;-4.472;2023-05-28T07:59:49;17.81;62.23
76239;SHT30;65043;48.392;-4.472;2023-05-28T08:02:14;17.91;62.12
76239;SHT30;65043;48.392;-4.472;2023-05-28T08:04:40;17.96;61.81
76239;SHT30;65043;48.392;-4.472;2023-05-28T08:07:05;17.97;61.56
76239;SHT30;65043;48.392;-4.472;2023-05-28T08:09:31;18.02;61.44
76239;SHT30;65043;48.392;-4.472;2023-05-28T08:11:57;18.07;61.45
76239;SHT30;65043;48.392;-4.472;2023-05-28T08:14:22;18.08;61.44
76239;SHT30;65043;48.392;-4.472;2023-05-28T08:16:48;18.09;61.30
76239;SHT30;65043;48.392;-4.472;2023-05-28T08:19:13;18.14;61.38
76239;SHT30;65043;48.392;-4.472;2023-05-28T08:21:39;18.15;61.41
76239;SHT30;65043;48.392;-4.472;2023-05-28T08:24:05;18.19;61.30
76239;SHT30;65043;48.392;-4.472;2023-05-28T08:26:31;18.25;61.04
76239;SHT30;65043;48.392;-4.472;2023-05-28T08:28:56;18.29;60.60
76239;SHT30;65043;48.392;-4.472;2023-05-28T08:31:22;18.36;60.68
76239;SHT30;65043;48.392;-4.472;2023-05-28T08:33:47;18.39;60.42
76239;SHT30;65043;48.392;-4.472;2023-05-28T08:36:13;18.41;60.40
76239;SHT30;65043;48.392;-4.472;2023-05-28T08:38:39;18.44;60.38
76239;SHT30;65043;48.392;-4.472;2023-05-28T08:41:05;18.48;60.60
76239;SHT30;65043;48.392;-4.472;2023-05-28T08:43:30;18.56;60.50
76239;SHT30;65043;48.392;-4.472;2023-05-28T08:45:56;18.59;60.35
76239;SHT30;65043;48.392;-4.472;2023-05-28T08:48:22;18.63;60.30
76239;SHT30;65043;48.392;-4.472;2023-05-28T08:50:49;18.67;60.02
76239;SHT30;65043;48.392;-4.472;2023-05-28T08:53:21;18.70;60.06
76239;SHT30;65043;48.392;-4.472;2023-05-28T08:55:47;18.77;59.97
76239;SHT30;65043;48.392;-4.472;2023-05-28T08:58:13;18.85;60.00
76239;SHT30;65043;48.392;-4.472;2023-05-28T09:00:39;18.93;60.04
76239;SHT30;65043;48.392;-4.472;2023-05-28T09:03:05;18.96;59.81
76239;SHT30;65043;48.392;-4.472;2023-05-28T09:05:36;19.06;59.28
76239;SHT30;65043;48.392;-4.472;2023-05-28T09:08:07;19.08;59.19
76239;SHT30;65043;48.392;-4.472;2023-05-28T09:10:37;19.14;58.63
76239;SHT30;65043;48.392;-4.472;2023-05-28T09:13:03;19.18;58.84
76239;SHT30;65043;48.392;-4.472;2023-05-28T09:15:30;19.24;58.70
76239;SHT30;65043;48.392;-4.472;2023-05-28T09:17:56;19.26;58.88
76239;SHT30;65043;48.392;-4.472;2023-05-28T09:20:23;19.30;57.83
76239;SHT30;65043;48.392;-4.472;2023-05-28T09:23:05;19.32;58.06
76239;SHT30;65043;48.392;-4.472;2023-05-28T09:25:35;19.39;58.03
76239;SHT30;65043;48.392;-4.472;2023-05-28T09:28:01;19.43;57.33
76239;SHT30;65043;48.392;-4.472;2023-05-28T09:30:27;19.47;57.28
76239;SHT30;65043;48.392;-4.472;2023-05-28T09:33:08;19.50;57.27
76239;SHT30;65043;48.392;-4.472;2023-05-28T09:35:34;19.54;57.17
76239;SHT30;65043;48.392;-4.472;2023-05-28T09:38:06;19.55;57.35
76239;SHT30;65043;48.392;-4.472;2023-05-28T09:40:40;19.58;57.51
76239;SHT30;65043;48.392;-4.472;2023-05-28T09:43:07;19.61;57.59
76239;SHT30;65043;48.392;-4.472;2023-05-28T09:45:33;19.66;57.67
76239;SHT30;65043;48.392;-4.472;2023-05-28T09:47:59;19.69;57.67
76239;SHT30;65043;48.392;-4.472;2023-05-28T09:50:25;19.75;57.64
76239;SHT30;65043;48.392;-4.472;2023-05-28T09:52:54;19.81;57.42
76239;SHT30;65043;48.392;-4.472;2023-05-28T09:55:24;19.88;57.40
76239;SHT30;65043;48.392;-4.472;2023-05-28T09:58:03;19.92;56.93
76239;SHT30;65043;48.392;-4.472;2023-05-28T10:00:35;19.95;57.16
76239;SHT30;65043;48.392;-4.472;2023-05-28T10:03:11;19.99;57.07
76239;SHT30;65043;48.392;-4.472;2023-05-28T10:05:40;20.06;57.08
76239;SHT30;65043;48.392;-4.472;2023-05-28T10:08:10;20.09;56.71
76239;SHT30;65043;48.392;-4.472;2023-05-28T10:10:39;20.10;56.51
76239;SHT30;65043;48.392;-4.472;2023-05-28T10:13:06;20.12;56.33
76239;SHT30;65043;48.392;-4.472;2023-05-28T10:15:33;20.15;56.40
76239;SHT30;65043;48.392;-4.472;2023-05-28T10:17:59;20.17;56.35
76239;SHT30;65043;48.392;-4.472;2023-05-28T10:20:25;20.20;56.23
76239;SHT30;65043;48.392;-4.472;2023-05-28T10:22:51;20.25;56.58
76239;SHT30;65043;48.392;-4.472;2023-05-28T10:25:17;20.25;56.12
76239;SHT30;65043;48.392;-4.472;2023-05-28T10:27:45;20.26;56.37
76239;SHT30;65043;48.392;-4.472;2023-05-28T10:30:30;20.30;56.40
76239;SHT30;65043;48.392;-4.472;2023-05-28T10:32:56;20.30;56.07
76239;SHT30;65043;48.392;-4.472;2023-05-28T10:35:22;20.32;56.17
76239;SHT30;65043;48.392;-4.472;2023-05-28T10:37:47;20.34;56.17
76239;SHT30;65043;48.392;-4.472;2023-05-28T10:40:22;20.33;56.24
76239;SHT30;65043;48.392;-4.472;2023-05-28T10:42:47;20.34;56.35
76239;SHT30;65043;48.392;-4.472;2023-05-28T10:45:13;20.39;56.50
76239;SHT30;65043;48.392;-4.472;2023-05-28T10:47:56;20.44;56.65
76239;SHT30;65043;48.392;-4.472;2023-05-28T10:50:21;20.47;56.54
76239;SHT30;65043;48.392;-4.472;2023-05-28T10:53:03;20.51;56.43
76239;SHT30;65043;48.392;-4.472;2023-05-28T10:55:54;20.57;56.38
76239;SHT30;65043;48.392;-4.472;2023-05-28T10:58:23;20.64;56.42
76239;SHT30;65043;48.392;-4.472;2023-05-28T11:00:49;20.67;56.22
76239;SHT30;65043;48.392;-4.472;2023-05-28T11:03:15;20.70;56.19
76239;SHT30;65043;48.392;-4.472;2023-05-28T11:05:40;20.70;55.96
76239;SHT30;65043;48.392;-4.472;2023-05-28T11:08:06;20.68;56.23
76239;SHT30;65043;48.392;-4.472;2023-05-28T11:10:32;20.75;56.23
76239;SHT30;65043;48.392;-4.472;2023-05-28T11:12:58;20.83;56.16
76239;SHT30;65043;48.392;-4.472;2023-05-28T11:15:24;20.91;56.28
76239;SHT30;65043;48.392;-4.472;2023-05-28T11:17:49;20.92;56.07
76239;SHT30;65043;48.392;-4.472;2023-05-28T11:20:25;20.96;56.06
76239;SHT30;65043;48.392;-4.472;2023-05-28T11:22:51;21.02;55.77
76239;SHT30;65043;48.392;-4.472;2023-05-28T11:25:17;21.05;55.60
76239;SHT30;65043;48.392;-4.472;2023-05-28T11:27:43;21.08;55.54
76239;SHT30;65043;48.392;-4.472;2023-05-28T11:32:37;21.11;55.47
76239;SHT30;65043;48.392;-4.472;2023-05-28T11:35:03;21.16;55.23
76239;SHT30;65043;48.392;-4.472;2023-05-28T11:37:34;21.25;55.37
76239;SHT30;65043;48.392;-4.472;2023-05-28T11:40:00;21.29;54.76
76239;SHT30;65043;48.392;-4.472;2023-05-28T11:42:29;21.33;55.19
76239;SHT30;65043;48.392;-4.472;2023-05-28T11:44:58;21.41;54.60
76239;SHT30;65043;48.392;-4.472;2023-05-28T11:47:24;21.43;54.65
76239;SHT30;65043;48.392;-4.472;2023-05-28T11:49:50;21.46;54.73
76239;SHT30;65043;48.392;-4.472;2023-05-28T11:52:20;21.53;54.51
76239;SHT30;65043;48.392;-4.472;2023-05-28T11:54:51;21.56;54.30
76239;SHT30;65043;48.392;-4.472;2023-05-28T11:57:22;21.63;54.15
76239;SHT30;65043;48.392;-4.472;2023-05-28T12:02:43;21.54;54.44
76239;SHT30;65043;48.392;-4.472;2023-05-28T12:05:09;21.46;54.15
76239;SHT30;65043;48.392;-4.472;2023-05-28T12:07:35;21.50;54.81
76239;SHT30;65043;48.392;-4.472;2023-05-28T12:10:09;21.60;54.33
76239;SHT30;65043;48.392;-4.472;2023-05-28T12:12:39;21.76;54.25
76239;SHT30;65043;48.392;-4.472;2023-05-28T12:15:05;21.84;53.77
76239;SHT30;65043;48.392;-4.472;2023-05-28T12:17:39;21.90;53.56
76239;SHT30;65043;48.392;-4.472;2023-05-28T12:22:43;22.03;52.94
76239;SHT30;65043;48.392;-4.472;2023-05-28T12:25:08;22.05;52.60
76239;SHT30;65043;48.392;-4.472;2023-05-28T12:27:35;22.13;52.56
76239;SHT30;65043;48.392;-4.472;2023-05-28T12:30:01;22.17;52.35
76239;SHT30;65043;48.392;-4.472;2023-05-28T12:32:26;22.21;52.19
76239;SHT30;65043;48.392;-4.472;2023-05-28T12:34:52;22.21;50.86
76239;SHT30;65043;48.392;-4.472;2023-05-28T12:37:22;22.30;51.00
76239;SHT30;65043;48.392;-4.472;2023-05-28T12:39:47;22.34;51.41
76239;SHT30;65043;48.392;-4.472;2023-05-28T12:42:13;22.42;51.95
76239;SHT30;65043;48.392;-4.472;2023-05-28T12:44:38;22.47;51.82
76239;SHT30;65043;48.392;-4.472;2023-05-28T12:47:04;22.52;51.86
76239;SHT30;65043;48.392;-4.472;2023-05-28T12:49:29;22.58;50.67
76239;SHT30;65043;48.392;-4.472;2023-05-28T12:51:55;22.69;51.26
76239;SHT30;65043;48.392;-4.472;2023-05-28T12:54:21;22.71;50.22
76239;SHT30;65043;48.392;-4.472;2023-05-28T12:56:46;22.76;50.15
76239;SHT30;65043;48.392;-4.472;2023-05-28T12:59:25;22.81;49.33
76239;SHT30;65043;48.392;-4.472;2023-05-28T13:01:51;22.90;49.50
76239;SHT30;65043;48.392;-4.472;2023-05-28T13:04:17;22.92;49.70
76239;SHT30;65043;48.392;-4.472;2023-05-28T13:06:43;22.99;48.61
76239;SHT30;65043;48.392;-4.472;2023-05-28T13:09:12;23.00;49.37
76239;SHT30;65043;48.392;-4.472;2023-05-28T13:11:39;23.04;49.21
76239;SHT30;65043;48.392;-4.472;2023-05-28T13:14:05;23.10;48.91
76239;SHT30;65043;48.392;-4.472;2023-05-28T13:16:31;23.13;49.25
76239;SHT30;65043;48.392;-4.472;2023-05-28T13:18:56;23.20;48.39
76239;SHT30;65043;48.392;-4.472;2023-05-28T13:21:22;23.23;47.59
76239;SHT30;65043;48.392;-4.472;2023-05-28T13:23:47;23.21;46.98
76239;SHT30;65043;48.392;-4.472;2023-05-28T13:26:13;23.27;46.20
76239;SHT30;65043;48.392;-4.472;2023-05-28T13:28:39;23.28;46.21
76239;SHT30;65043;48.392;-4.472;2023-05-28T13:31:04;23.30;46.21
76239;SHT30;65043;48.392;-4.472;2023-05-28T13:33:30;23.31;46.53
76239;SHT30;65043;48.392;-4.472;2023-05-28T13:35:55;23.37;46.90
76239;SHT30;65043;48.392;-4.472;2023-05-28T13:38:20;23.41;46.52
76239;SHT30;65043;48.392;-4.472;2023-05-28T13:40:46;23.44;45.83
76239;SHT30;65043;48.392;-4.472;2023-05-28T13:43:12;23.47;46.03
76239;SHT30;65043;48.392;-4.472;2023-05-28T13:45:40;23.53;45.83
76239;SHT30;65043;48.392;-4.472;2023-05-28T13:48:05;23.57;45.08
76239;SHT30;65043;48.392;-4.472;2023-05-28T13:50:32;23.61;45.41
76239;SHT30;65043;48.392;-4.472;2023-05-28T13:52:58;23.67;46.27
76239;SHT30;65043;48.392;-4.472;2023-05-28T13:55:23;23.72;46.50
76239;SHT30;65043;48.392;-4.472;2023-05-28T13:57:49;23.74;46.89
76239;SHT30;65043;48.392;-4.472;2023-05-28T14:00:15;23.81;46.20
76239;SHT30;65043;48.392;-4.472;2023-05-28T14:02:42;23.85;46.45
76239;SHT30;65043;48.392;-4.472;2023-05-28T14:05:07;23.88;46.36
76239;SHT30;65043;48.392;-4.472;2023-05-28T14:07:33;23.94;46.53
76239;SHT30;65043;48.392;-4.472;2023-05-28T14:09:58;23.98;46.76
76239;SHT30;65043;48.392;-4.472;2023-05-28T14:12:24;23.99;46.25
76239;SHT30;65043;48.392;-4.472;2023-05-28T14:14:49;24.02;46.16
76239;SHT30;65043;48.392;-4.472;2023-05-28T14:17:15;24.06;45.95
76239;SHT30;65043;48.392;-4.472;2023-05-28T14:19:40;24.08;45.86
76239;SHT30;65043;48.392;-4.472;2023-05-28T14:22:05;24.15;45.81
76239;SHT30;65043;48.392;-4.472;2023-05-28T14:24:31;24.15;45.66
76239;SHT30;65043;48.392;-4.472;2023-05-28T14:26:56;24.15;46.14
76239;SHT30;65043;48.392;-4.472;2023-05-28T14:29:22;24.20;46.02
76239;SHT30;65043;48.392;-4.472;2023-05-28T14:31:47;24.26;46.02
76239;SHT30;65043;48.392;-4.472;2023-05-28T14:34:12;24.29;45.75
76239;SHT30;65043;48.392;-4.472;2023-05-28T14:36:38;24.30;45.69
76239;SHT30;65043;48.392;-4.472;2023-05-28T14:39:03;24.35;45.65
76239;SHT30;65043;48.392;-4.472;2023-05-28T14:41:29;24.39;44.66
76239;SHT30;65043;48.392;-4.472;2023-05-28T14:43:54;24.40;45.09
76239;SHT30;65043;48.392;-4.472;2023-05-28T14:46:20;24.40;44.81
76239;SHT30;65043;48.392;-4.472;2023-05-28T14:48:45;24.43;44.61
76239;SHT30;65043;48.392;-4.472;2023-05-28T14:51:11;24.48;45.06
76239;SHT30;65043;48.392;-4.472;2023-05-28T14:53:36;24.52;44.39
76239;SHT30;65043;48.392;-4.472;2023-05-28T14:56:02;24.52;43.72
76239;SHT30;65043;48.392;-4.472;2023-05-28T14:58:27;24.53;43.38
76239;SHT30;65043;48.392;-4.472;2023-05-28T15:00:54;24.52;43.31
76239;SHT30;65043;48.392;-4.472;2023-05-28T15:03:19;24.53;43.10
76239;SHT30;65043;48.392;-4.472;2023-05-28T15:05:45;24.52;41.96
76239;SHT30;65043;48.392;-4.472;2023-05-28T15:08:10;24.53;41.86
76239;SHT30;65043;48.392;-4.472;2023-05-28T15:10:37;24.52;41.93
76239;SHT30;65043;48.392;-4.472;2023-05-28T15:13:02;24.52;42.19
76239;SHT30;65043;48.392;-4.472;2023-05-28T15:15:28;24.59;42.08
76239;SHT30;65043;48.392;-4.472;2023-05-28T15:17:53;24.57;41.48